Time;durP1;ratioP1;P1;durP2;ratioP2;P2;SDS_P1;SDS_P2;PMS_P1;PMS_P2;Temp;Humidity;BMP_temperature;BMP_pressure;BME280_temperature;BME280_humidity;BME280_pressure;Samples;Min_cycle;Max_cycle;Signal;HPM_P1;HPM_P2
2022/03/17 07:18:28;;;;;;;;;;;256.10;2252.80;;;;;;6223133;22;19920;-89
2022/03/17 07:26:27;;;;;;;;;;;256.50;2252.80;;;;;;6217733;23;19910;-90
2022/03/17 07:34:25;;;;;;;;;;;256.70;2252.80;;;;;;6218393;23;19954;-86
2022/03/17 07:36:53;;;;;;;;;;;256.60;2252.80;;;;;;6215728;23;19954;-89
2022/03/17 07:42:29;;;;;;;;;;;256.70;2252.80;;;;;;6245584;22;20002;-91
2022/03/17 07:44:55;;;;;;;;;;;256.70;2252.80;;;;;;6246310;23;19935;-90
2022/03/17 07:47:21;;;;;;;;;;;256.90;2252.80;;;;;;6219514;23;19930;-90
2022/03/17 07:49:47;;;;;;;;;;;281.60;2278.40;;;;;;6247244;23;19935;-87
2022/03/17 07:52:13;;;;;;;;;;;281.70;2278.40;;;;;;6220724;23;19899;-90
2022/03/17 07:54:39;;;;;;;;;;;281.90;2278.40;;;;;;6220458;23;19900;-86
2022/03/17 07:57:06;;;;;;;;;;;281.90;2227.20;;;;;;6219685;23;20272;-89
2022/03/17 07:59:32;;;;;;;;;;;282.00;2201.60;;;;;;6245534;23;19935;-86
2022/03/17 08:01:58;;;;;;;;;;;282.10;2176.00;;;;;;6219377;23;19899;-87
2022/03/17 08:04:24;;;;;;;;;;;282.10;2227.20;;;;;;6219681;23;19911;-91
2022/03/17 08:06:53;;;;;;;;;;;282.10;2201.60;;;;;;6219992;23;20384;-92
2022/03/17 08:09:19;;;;;;;;;;;282.30;2201.60;;;;;;6219832;23;19900;-86
2022/03/17 08:11:48;;;;;;;;;;;282.20;2150.40;;;;;;6246278;23;20224;-90
2022/03/17 08:14:16;;;;;;;;;;;282.20;2150.40;;;;;;6246894;23;19899;-90
2022/03/17 08:16:43;;;;;;;;;;;282.20;2150.40;;;;;;6219762;23;20222;-89
2022/03/17 08:19:10;;;;;;;;;;;282.30;2176.00;;;;;;6220096;23;20337;-86
2022/03/17 08:21:35;;;;;;;;;;;282.40;2176.00;;;;;;6220643;23;19899;-88
2022/03/17 08:24:01;;;;;;;;;;;307.20;2176.00;;;;;;6220532;23;19906;-89
2022/03/17 08:26:27;;;;;;;;;;;307.20;2150.40;;;;;;6248084;23;19986;-88
2022/03/17 08:28:52;;;;;;;;;;;307.30;2124.80;;;;;;6222540;23;19903;-90
2022/03/17 08:31:18;;;;;;;;;;;307.40;2099.20;;;;;;6222778;23;19915;-87
2022/03/17 08:33:44;;;;;;;;;;;307.50;2099.20;;;;;;6222987;23;19900;-86
2022/03/17 08:36:09;;;;;;;;;;;307.40;2124.80;;;;;;6249113;23;19907;-88
2022/03/17 08:38:35;;;;;;;;;;;307.30;2150.40;;;;;;6222612;23;19899;-87
2022/03/17 08:41:01;;;;;;;;;;;307.40;2099.20;;;;;;6222676;23;20370;-91
2022/03/17 08:43:26;;;;;;;;;;;307.40;2099.20;;;;;;6222801;23;19939;-86
2022/03/17 08:51:27;;;;;;;;;;;307.50;2124.80;;;;;;6249283;23;19930;-88
2022/03/17 08:53:53;;;;;;;;;;;307.60;2099.20;;;;;;6222265;23;19945;-90
2022/03/17 08:56:18;;;;;;;;;;;307.50;2124.80;;;;;;6221984;23;19899;-90
2022/03/17 08:58:44;;;;;;;;;;;307.40;2124.80;;;;;;6222708;23;20010;-91
2022/03/17 09:01:11;;;;;;;;;;;307.30;2099.20;;;;;;6222808;23;20309;-89
2022/03/17 09:03:36;;;;;;;;;;;307.30;2124.80;;;;;;6222737;23;19904;-89
2022/03/17 09:06:02;;;;;;;;;;;307.40;2099.20;;;;;;6222590;23;19906;-89
2022/03/17 09:08:28;;;;;;;;;;;307.40;2124.80;;;;;;6249190;23;19943;-86
2022/03/17 09:10:57;;;;;;;;;;;307.30;2099.20;;;;;;6222679;23;20313;-86
2022/03/17 09:13:25;;;;;;;;;;;282.50;2073.60;;;;;;6249186;23;19935;-90
2022/03/17 09:15:51;;;;;;;;;;;282.50;2099.20;;;;;;6222529;23;19923;-88
2022/03/17 09:18:16;;;;;;;;;;;282.40;2073.60;;;;;;6222268;23;19910;-88
2022/03/17 09:20:42;;;;;;;;;;;282.50;2048.00;;;;;;6248597;23;19922;-91
2022/03/17 09:23:08;;;;;;;;;;;307.50;2073.60;;;;;;6222145;23;19900;-90
2022/03/17 09:25:35;;;;;;;;;;;307.40;2048.00;;;;;;6222025;23;19900;-86
2022/03/17 09:28:01;;;;;;;;;;;307.80;2022.40;;;;;;6222014;23;19944;-87
2022/03/17 09:30:27;;;;;;;;;;;308.00;1996.80;;;;;;6221957;23;19907;-89
2022/03/17 09:32:54;;;;;;;;;;;308.10;1996.80;;;;;;6222468;23;19966;-86
2022/03/17 09:35:20;;;;;;;;;;;332.80;1996.80;;;;;;6249355;23;19899;-86
2022/03/17 09:37:46;;;;;;;;;;;409.80;1792.00;;;;;;6221763;23;20317;-86
2022/03/17 09:40:12;;;;;;;;;;;461.00;1920.00;;;;;;6221039;23;19907;-87
2022/03/17 09:42:38;;;;;;;;;;;;;;;;;;6190573;23;19912;-88
2022/03/17 09:45:04;;;;;;;;;;;;;;;;;;6217241;23;19900;-88
2022/03/17 09:47:30;;;;;;;;;;;;;;;;;;6190488;23;20118;-87
2022/03/17 09:49:56;;;;;;;;;;;;;;;;;;6190565;23;19927;-88
2022/03/17 09:52:22;;;;;;;;;;;;;;;;;;6215456;23;19919;-88
2022/03/17 09:54:48;;;;;;;;;;;;;;;;;;6217029;23;19991;-85
2022/03/17 09:57:16;;;;;;;;;;;;;;;;;;6217773;23;19900;-87
2022/03/17 09:59:42;;;;;;;;;;;;;;;;;;6190285;23;19907;-87
2022/03/17 10:02:08;;;;;;;;;;;;;;;;;;6216855;23;19900;-88
2022/03/17 10:04:39;;;;;;;;;;;;;;;;;;6190450;23;19906;-87
2022/03/17 10:07:05;;;;;;;;;;;;;;;;;;6191023;23;19907;-89
2022/03/17 10:09:31;;;;;;;;;;;;;;;;;;6190336;23;19900;-84
2022/03/17 10:11:57;;;;;;;;;;;;;;;;;;6191159;23;19910;-89
2022/03/17 10:14:23;;;;;;;;;;;;;;;;;;6191151;23;19904;-86
2022/03/17 10:16:50;;;;;;;;;;;;;;;;;;6190455;23;19900;-88
2022/03/17 10:19:15;;;;;;;;;;;;;;;;;;6191850;23;19928;-89
2022/03/17 10:21:43;;;;;;;;;;;;;;;;;;6191844;23;19911;-88
2022/03/17 10:24:09;;;;;;;;;;;;;;;;;;6217670;23;19900;-87
2022/03/17 10:26:35;;;;;;;;;;;;;;;;;;6217931;23;19899;-87
2022/03/17 10:29:01;;;;;;;;;;;;;;;;;;6191414;23;19904;-88
2022/03/17 10:31:27;;;;;;;;;;;;;;;;;;6218267;23;20343;-87
2022/03/17 10:33:53;;;;;;;;;;;;;;;;;;6188542;23;19900;-90
2022/03/17 10:36:22;;;;;;;;;;;;;;;;;;6217500;23;20313;-90
2022/03/17 10:38:51;;;;;;;;;;;;;;;;;;6190566;23;19904;-89
2022/03/17 10:41:17;;;;;;;;;;;;;;;;;;6204808;23;20236;-89
2022/03/17 10:43:43;;;;;;;;;;;;;;;;;;6220482;23;19900;-89
2022/03/17 10:46:11;;;;;;;;;;;;;;;;;;6221113;23;19900;-89
2022/03/17 10:48:37;;;;;;;;;;;;;;;;;;6219934;23;19911;-90
2022/03/17 10:51:03;;;;;;;;;;;;;;;;;;6220131;23;19899;-90
2022/03/17 10:53:29;;;;;;;;;;;;;;;;;;6220883;23;20305;-88
2022/03/17 10:55:55;;;;;;;;;;;;;;;;;;6221419;23;19926;-89
2022/03/17 10:58:21;;;;;;;;;;;358.70;1664.00;;;;;;6221346;23;20025;-92
2022/03/17 11:00:48;;;;;;;;;;;358.50;1715.20;;;;;;6220886;23;19903;-92
2022/03/17 11:03:14;;;;;;;;;;;333.50;1766.40;;;;;;6220712;23;19949;-92
2022/03/17 11:05:40;;;;;;;;;;;333.60;1740.80;;;;;;6220729;23;20372;-92
2022/03/17 11:08:09;;;;;;;;;;;333.60;1766.40;;;;;;6220394;23;19942;-92
2022/03/17 11:10:38;;;;;;;;;;;333.50;1792.00;;;;;;6221160;23;20236;-92
2022/03/17 11:13:13;;;;;;;;;;;333.40;1817.60;;;;;;6220908;23;19899;-90
2022/03/17 11:15:41;;;;;;;;;;;333.20;1868.80;;;;;;6220122;23;19904;-91
2022/03/17 11:18:10;;;;;;;;;;;333.10;1894.40;;;;;;6220162;23;19904;-91
2022/03/17 11:20:36;;;;;;;;;;;332.90;1894.40;;;;;;6219893;23;19903;-92
2022/03/17 11:23:15;;;;;;;;;;;332.80;1894.40;;;;;;6220513;23;19907;-92
2022/03/17 11:25:44;;;;;;;;;;;332.90;1920.00;;;;;;6220239;23;19906;-91
2022/03/17 11:28:10;;;;;;;;;;;333.20;1894.40;;;;;;6218764;23;20307;-91
2022/03/17 11:30:46;;;;;;;;;;;333.40;1868.80;;;;;;6219552;23;19956;-91
2022/03/17 11:33:29;;;;;;;;;;;333.50;1843.20;;;;;;6217392;23;19903;-91
2022/03/17 11:35:55;;;;;;;;;;;333.50;1843.20;;;;;;6218766;23;19910;-92
2022/03/17 11:38:26;;;;;;;;;;;333.50;1843.20;;;;;;6218858;23;19906;-91
2022/03/17 11:41:09;;;;;;;;;;;333.70;1817.60;;;;;;6217499;23;19911;-92
2022/03/17 11:43:42;;;;;;;;;;;358.50;1792.00;;;;;;6219573;23;19910;-91
2022/03/17 11:46:18;;;;;;;;;;;358.60;1792.00;;;;;;6219656;23;19904;-91
2022/03/17 11:48:44;;;;;;;;;;;358.90;1740.80;;;;;;6219888;23;19914;-91
2022/03/17 11:51:11;;;;;;;;;;;358.90;1766.40;;;;;;6219831;23;19903;-91
2022/03/17 11:53:49;;;;;;;;;;;358.70;1792.00;;;;;;6220014;23;19904;-95
2022/03/17 11:56:38;;;;;;;;;;;358.60;1792.00;;;;;;6219786;23;19903;-92
2022/03/17 11:59:07;;;;;;;;;;;358.40;1817.60;;;;;;6225252;23;19899;-95
2022/03/17 12:01:34;;;;;;;;;;;333.50;1868.80;;;;;;6219522;23;19903;-92
2022/03/17 12:04:00;;;;;;;;;;;333.30;1868.80;;;;;;6221374;23;19938;-93
2022/03/17 12:06:30;;;;;;;;;;;333.00;1920.00;;;;;;6228582;23;19899;-91
2022/03/17 12:09:01;;;;;;;;;;;333.00;1945.60;;;;;;6228089;23;19978;-90
2022/03/17 12:11:36;;;;;;;;;;;332.90;1920.00;;;;;;6254805;23;19904;-92
2022/03/17 12:14:24;;;;;;;;;;;332.80;1971.20;;;;;;6219519;23;19903;-91
2022/03/17 12:16:57;;;;;;;;;;;332.90;1971.20;;;;;;6245143;23;20622;-90
2022/03/17 12:19:25;;;;;;;;;;;308.00;1971.20;;;;;;6219985;23;19903;-89
2022/03/17 12:22:03;;;;;;;;;;;308.10;1945.60;;;;;;6221246;23;19899;-92
2022/03/17 12:24:34;;;;;;;;;;;308.10;1971.20;;;;;;6220961;23;19903;-90
2022/03/17 12:27:11;;;;;;;;;;;308.10;1945.60;;;;;;6223389;23;19907;-91
2022/03/17 12:29:37;;;;;;;;;;;332.80;1996.80;;;;;;6219744;23;20339;-92
2022/03/17 12:32:04;;;;;;;;;;;308.10;1971.20;;;;;;6219873;23;19899;-91
2022/03/17 12:34:30;;;;;;;;;;;308.10;1971.20;;;;;;6219529;23;20071;-94
2022/03/17 12:36:56;;;;;;;;;;;;;;;;;;6223976;23;19957;-93
2022/03/17 12:39:22;;;;;;;;;;;;;;;;;;6220307;23;19903;-91
2022/03/17 12:41:48;;;;;;;;;;;;;;;;;;6223216;23;19915;-94
2022/03/17 12:44:21;;;;;;;;;;;308.00;1996.80;;;;;;6220193;23;19899;-90
2022/03/17 12:46:46;;;;;;;;;;;308.00;2304.00;;;;;;6221649;23;19900;-91
2022/03/17 12:49:12;;;;;;;;;;;308.00;1996.80;;;;;;6219604;23;19903;-93
2022/03/17 12:51:38;;;;;;;;;;;308.00;1996.80;;;;;;6220678;23;19974;-91
2022/03/17 12:54:03;;;;;;;;;;;307.90;2022.40;;;;;;6219503;23;20228;-90
2022/03/17 12:56:29;;;;;;;;;;;307.80;2022.40;;;;;;6218747;23;20325;-91
2022/03/17 12:58:54;;;;;;;;;;;307.80;2022.40;;;;;;6218498;23;20313;-91
2022/03/17 13:01:20;;;;;;;;;;;308.00;1996.80;;;;;;6218841;23;20305;-90
2022/03/17 13:03:48;;;;;;;;;;;332.80;1996.80;;;;;;6219757;23;19900;-90
2022/03/17 13:09:04;;;;;;;;;;;333.10;1945.60;;;;;;6247367;23;19997;-89
2022/03/17 13:14:21;;;;;;;;;;;333.20;1920.00;;;;;;6248757;23;19926;-89
2022/03/17 13:16:57;;;;;;;;;;;333.30;1894.40;;;;;;6222338;23;20340;-90
2022/03/17 13:19:22;;;;;;;;;;;333.20;1894.40;;;;;;6222361;23;20303;-90
2022/03/17 13:21:51;;;;;;;;;;;333.20;1894.40;;;;;;6222338;23;19941;-89
2022/03/17 13:24:17;;;;;;;;;;;332.90;1920.00;;;;;;6221977;23;19899;-91
2022/03/17 13:26:43;;;;;;;;;;;332.90;1920.00;;;;;;6222118;23;20002;-90
2022/03/17 13:29:12;;;;;;;;;;;333.10;1945.60;;;;;;6224682;23;19907;-90
2022/03/17 13:31:43;;;;;;;;;;;333.10;1945.60;;;;;;6222424;23;19953;-90
2022/03/17 13:34:25;;;;;;;;;;;333.10;1920.00;;;;;;6223741;23;19900;-92
2022/03/17 13:36:54;;;;;;;;;;;333.20;1920.00;;;;;;6225007;23;20359;-93
2022/03/17 13:39:36;;;;;;;;;;;333.30;1920.00;;;;;;6227827;23;19933;-94
2022/03/17 13:42:06;;;;;;;;;;;333.30;1894.40;;;;;;6226474;23;19919;-89
2022/03/17 13:44:41;;;;;;;;;;;333.30;1868.80;;;;;;6224966;23;19900;-90
2022/03/17 13:47:11;;;;;;;;;;;333.20;1920.00;;;;;;6223279;23;20265;-90
2022/03/17 13:49:37;;;;;;;;;;;333.10;1920.00;;;;;;6223455;23;19908;-91
2022/03/17 13:52:02;;;;;;;;;;;332.90;1971.20;;;;;;6223945;23;20321;-90
2022/03/17 13:54:28;;;;;;;;;;;332.80;1945.60;;;;;;6223215;23;19907;-88
2022/03/17 13:57:00;;;;;;;;;;;308.10;1920.00;;;;;;6222449;23;19900;-90
2022/03/17 13:59:26;;;;;;;;;;;308.10;1945.60;;;;;;6225322;23;19906;-89
2022/03/17 14:02:09;;;;;;;;;;;307.90;1971.20;;;;;;6224233;23;19899;-90
2022/03/17 14:04:34;;;;;;;;;;;307.80;1996.80;;;;;;6228765;23;19906;-90
2022/03/17 14:07:00;;;;;;;;;;;307.80;1996.80;;;;;;6231232;23;19931;-90
2022/03/17 14:09:26;;;;;;;;;;;307.70;1996.80;;;;;;6235591;23;19900;-89
2022/03/17 14:11:52;;;;;;;;;;;307.60;2022.40;;;;;;6223623;23;19899;-89
2022/03/17 14:14:20;;;;;;;;;;;307.50;2048.00;;;;;;6223734;23;19954;-90
2022/03/17 14:16:47;;;;;;;;;;;307.60;2048.00;;;;;;6223844;23;19900;-89
2022/03/17 14:19:14;;;;;;;;;;;307.40;2073.60;;;;;;6222451;23;19906;-90
2022/03/17 14:24:10;;;;;;;;;;;307.50;2048.00;;;;;;6249913;23;19900;-89
2022/03/17 14:24:29;;;;;;;;;;;307.40;2048.00;;;;;;6248956;23;19926;-89
2022/03/17 14:26:54;;;;;;;;;;;307.40;2073.60;;;;;;6221673;23;19907;-89
2022/03/17 14:29:20;;;;;;;;;;;307.40;2048.00;;;;;;6221633;23;19905;-90
2022/03/17 14:31:47;;;;;;;;;;;307.40;2048.00;;;;;;6221499;23;19900;-89
2022/03/17 14:34:13;;;;;;;;;;;307.40;2048.00;;;;;;6221483;23;19899;-94
2022/03/17 14:36:42;;;;;;;;;;;307.40;2048.00;;;;;;6222942;23;19899;-89
2022/03/17 14:39:09;;;;;;;;;;;307.30;2048.00;;;;;;6221515;23;19900;-89
2022/03/17 14:41:35;;;;;;;;;;;307.20;2073.60;;;;;;6222432;23;19979;-88
2022/03/17 14:44:01;;;;;;;;;;;307.30;2073.60;;;;;;6221669;23;19991;-89
2022/03/17 14:46:27;;;;;;;;;;;307.30;2022.40;;;;;;6220637;23;19904;-89
2022/03/17 14:48:54;;;;;;;;;;;307.20;2048.00;;;;;;6221356;23;19942;-89
2022/03/17 14:51:19;;;;;;;;;;;307.20;2048.00;;;;;;6221443;23;19922;-90
2022/03/17 14:53:45;;;;;;;;;;;282.50;2022.40;;;;;;6221610;23;19986;-89
2022/03/17 14:56:12;;;;;;;;;;;282.50;2022.40;;;;;;6221874;23;19945;-90
2022/03/17 14:58:45;;;;;;;;;;;282.50;2022.40;;;;;;6221516;23;19900;-89
2022/03/17 15:01:11;;;;;;;;;;;307.20;2048.00;;;;;;6221755;23;19939;-89
2022/03/17 15:03:40;;;;;;;;;;;282.50;2022.40;;;;;;6221395;23;19911;-88
2022/03/17 15:06:09;;;;;;;;;;;307.20;2022.40;;;;;;6221253;23;19899;-90
2022/03/17 15:08:38;;;;;;;;;;;282.50;1996.80;;;;;;6221888;23;19915;-89
2022/03/17 15:11:04;;;;;;;;;;;282.50;1996.80;;;;;;6221304;23;19951;-89
2022/03/17 15:13:30;;;;;;;;;;;282.50;1971.20;;;;;;6221250;23;19906;-88
2022/03/17 15:15:55;;;;;;;;;;;282.50;1996.80;;;;;;6220992;23;19931;-88
2022/03/17 15:18:21;;;;;;;;;;;282.50;1996.80;;;;;;6221215;23;19899;-89
2022/03/17 15:20:47;;;;;;;;;;;282.40;1996.80;;;;;;6221153;23;19953;-88
2022/03/17 15:23:12;;;;;;;;;;;282.40;2022.40;;;;;;6221308;23;19899;-89
2022/03/17 15:25:38;;;;;;;;;;;282.40;1996.80;;;;;;6221053;23;19906;-89
2022/03/17 15:30:48;;;;;;;;;;;282.40;1996.80;;;;;;6247862;23;19907;-89
2022/03/17 15:33:14;;;;;;;;;;;282.50;1996.80;;;;;;6221051;23;19903;-89
2022/03/17 15:35:42;;;;;;;;;;;282.30;1996.80;;;;;;6221028;23;19900;-89
2022/03/17 15:38:09;;;;;;;;;;;282.40;1996.80;;;;;;6221035;23;19906;-89
2022/03/17 15:40:36;;;;;;;;;;;282.30;1996.80;;;;;;6220962;23;19986;-89
2022/03/17 15:43:03;;;;;;;;;;;282.30;1971.20;;;;;;6220747;23;19925;-88
2022/03/17 15:45:30;;;;;;;;;;;282.40;1971.20;;;;;;6220817;23;19907;-89
2022/03/17 15:47:55;;;;;;;;;;;282.30;1945.60;;;;;;6221041;23;19942;-89
2022/03/17 15:50:23;;;;;;;;;;;282.30;1945.60;;;;;;6221044;23;19949;-89
2022/03/17 15:52:50;;;;;;;;;;;282.30;1945.60;;;;;;6220580;23;19926;-90
2022/03/17 15:55:16;;;;;;;;;;;282.30;1971.20;;;;;;6220636;23;20305;-91
2022/03/17 15:57:41;;;;;;;;;;;282.30;1945.60;;;;;;6220985;23;19983;-89
2022/03/17 16:00:07;;;;;;;;;;;282.30;1971.20;;;;;;6221025;23;19910;-89
2022/03/17 16:02:33;;;;;;;;;;;282.30;1971.20;;;;;;6247274;23;19900;-89
2022/03/17 16:04:59;;;;;;;;;;;282.10;1971.20;;;;;;6220778;23;19900;-89
2022/03/17 16:07:25;;;;;;;;;;;282.10;1945.60;;;;;;6220881;23;20379;-88
2022/03/17 16:15:19;;;;;;;;;;;282.10;1945.60;;;;;;6247831;23;19907;-88
2022/03/17 16:17:46;;;;;;;;;;;282.00;1945.60;;;;;;6220937;23;19899;-90
2022/03/17 16:20:13;;;;;;;;;;;282.00;1945.60;;;;;;6220769;23;19903;-89
2022/03/17 16:22:41;;;;;;;;;;;281.60;1945.60;;;;;;6220666;23;19899;-90
2022/03/17 16:25:08;;;;;;;;;;;281.90;1971.20;;;;;;6220628;23;19904;-88
2022/03/17 16:27:33;;;;;;;;;;;281.90;1945.60;;;;;;6220543;23;20332;-90
2022/03/17 16:29:59;;;;;;;;;;;281.80;1945.60;;;;;;6220554;23;19900;-90
2022/03/17 16:32:25;;;;;;;;;;;281.80;1945.60;;;;;;6220639;23;20336;-89
2022/03/17 16:34:51;;;;;;;;;;;281.80;1945.60;;;;;;6220546;23;19969;-90
2022/03/17 16:37:18;;;;;;;;;;;281.60;1945.60;;;;;;6220427;23;19900;-90
2022/03/17 16:39:45;;;;;;;;;;;281.80;1945.60;;;;;;6220611;23;19900;-90
2022/03/17 16:42:13;;;;;;;;;;;281.60;1945.60;;;;;;6195304;23;19950;-89
2022/03/17 16:44:39;;;;;;;;;;;281.60;1945.60;;;;;;6190342;23;19906;-90
2022/03/17 16:47:04;;;;;;;;;;;281.60;1971.20;;;;;;6191991;23;19903;-88
2022/03/17 16:49:31;;;;;;;;;;;281.60;1945.60;;;;;;6195032;23;19904;-91
2022/03/17 16:51:58;;;;;;;;;;;256.90;1920.00;;;;;;6196460;23;19904;-89
2022/03/17 16:54:24;;;;;;;;;;;256.80;1920.00;;;;;;6193813;23;19903;-90
2022/03/17 16:56:53;;;;;;;;;;;256.70;1920.00;;;;;;6193480;23;19900;-91
2022/03/17 16:59:20;;;;;;;;;;;256.60;1920.00;;;;;;6195214;23;19954;-88
2022/03/17 17:01:48;;;;;;;;;;;256.60;1920.00;;;;;;6197861;23;19907;-92
2022/03/17 17:04:13;;;;;;;;;;;256.60;1920.00;;;;;;6193964;23;19900;-90
2022/03/17 17:06:40;;;;;;;;;;;256.60;1894.40;;;;;;6190722;23;19899;-91
2022/03/17 17:09:07;;;;;;;;;;;256.50;1920.00;;;;;;6190779;23;19907;-90
2022/03/17 17:11:32;;;;;;;;;;;256.50;1894.40;;;;;;6191390;23;19946;-90
2022/03/17 17:14:01;;;;;;;;;;;256.40;1920.00;;;;;;6207489;23;19991;-90
2022/03/17 17:16:26;;;;;;;;;;;256.40;1920.00;;;;;;6195347;23;19935;-92
2022/03/17 17:18:52;;;;;;;;;;;256.40;1920.00;;;;;;6192807;23;19904;-89
2022/03/17 17:21:18;;;;;;;;;;;256.30;1920.00;;;;;;6192754;23;19935;-90
2022/03/17 17:31:56;;;;;;;;;;;256.10;1894.40;;;;;;6219088;23;19906;-89
2022/03/17 17:34:22;;;;;;;;;;;256.00;1920.00;;;;;;6193079;23;19904;-91
2022/03/17 17:36:49;;;;;;;;;;;231.30;1920.00;;;;;;6192388;23;20327;-89
2022/03/17 17:39:16;;;;;;;;;;;231.30;1920.00;;;;;;6191757;23;20310;-90
2022/03/17 17:41:43;;;;;;;;;;;231.30;1920.00;;;;;;6211335;23;19915;-90
2022/03/17 17:44:08;;;;;;;;;;;231.20;1945.60;;;;;;6222687;23;19943;-91
2022/03/17 17:46:43;;;;;;;;;;;231.20;1920.00;;;;;;6223342;23;19903;-91
2022/03/17 17:49:09;;;;;;;;;;;231.20;1945.60;;;;;;6227195;23;20355;-90
2022/03/17 17:57:09;;;;;;;;;;;231.00;1945.60;;;;;;6255445;22;19919;-90
2022/03/17 18:05:38;;;;;;;;;;;230.90;1945.60;;;;;;6252851;22;20014;-89
2022/03/17 18:25:07;;;;;;;;;;;230.70;1945.60;;;;;;6253012;22;19958;-90
2022/03/17 18:48:43;;;;;;;;;;;205.70;1996.80;;;;;;6251403;22;19959;-91
